Time;durP1;ratioP1;P1;durP2;ratioP2;P2;SDS_P1;SDS_P2;PMS_P1;PMS_P2;Temp;Humidity;BMP_temperature;BMP_pressure;BME280_temperature;BME280_humidity;BME280_pressure;Samples;Min_cycle;Max_cycle;Signal;HPM_P1;HPM_P2
2023/07/23 00:01:04;;;;;;;3.22;1.95;;;13.80;99.90;;;;;;5034254;28;20025;-67
2023/07/23 00:03:30;;;;;;;4.15;2.40;;;13.80;99.90;;;;;;5034493;28;20037;-67
2023/07/23 00:05:56;;;;;;;3.80;2.35;;;13.80;99.90;;;;;;5033104;28;20389;-67
2023/07/23 00:08:21;;;;;;;4.65;1.98;;;13.80;99.90;;;;;;5034193;28;20029;-67
2023/07/23 00:10:47;;;;;;;3.50;2.10;;;13.80;99.90;;;;;;5034173;28;20393;-67
2023/07/23 00:13:13;;;;;;;3.30;2.25;;;13.80;99.90;;;;;;5034545;28;20048;-66
2023/07/23 00:15:39;;;;;;;3.65;2.30;;;13.80;99.90;;;;;;5033843;28;20104;-67
2023/07/23 00:18:04;;;;;;;5.05;2.17;;;13.80;99.90;;;;;;5034082;28;20449;-66
2023/07/23 00:20:30;;;;;;;4.18;2.63;;;13.90;99.90;;;;;;5033701;28;20104;-66
2023/07/23 00:22:56;;;;;;;5.05;2.38;;;13.90;99.90;;;;;;5033681;28;20026;-66
2023/07/23 00:25:21;;;;;;;5.90;2.25;;;13.90;99.90;;;;;;5033656;28;20080;-67
2023/07/23 00:27:47;;;;;;;5.07;2.50;;;14.00;99.90;;;;;;5033556;28;20033;-67
2023/07/23 00:30:13;;;;;;;3.75;2.20;;;14.00;99.90;;;;;;5033896;28;20079;-67
2023/07/23 00:32:38;;;;;;;4.78;2.15;;;14.00;99.90;;;;;;5033321;28;20041;-66
2023/07/23 00:35:04;;;;;;;7.53;2.70;;;14.00;99.90;;;;;;5031818;28;20064;-66
2023/07/23 00:37:31;;;;;;;5.70;2.67;;;14.00;99.90;;;;;;5033515;28;20036;-67
2023/07/23 00:39:57;;;;;;;4.07;2.45;;;14.00;99.90;;;;;;5033924;28;20074;-66
2023/07/23 00:42:23;;;;;;;5.47;2.60;;;14.00;99.90;;;;;;5015699;28;20474;-66
2023/07/23 00:44:49;;;;;;;4.35;2.15;;;14.00;99.90;;;;;;5033419;28;20116;-67
2023/07/23 00:47:16;;;;;;;3.47;2.15;;;14.00;99.90;;;;;;5033375;28;20478;-66
2023/07/23 00:49:42;;;;;;;4.07;2.33;;;13.90;99.90;;;;;;5033630;28;20041;-67
2023/07/23 00:52:08;;;;;;;4.13;2.35;;;13.90;99.90;;;;;;5033540;28;20034;-66
2023/07/23 00:54:34;;;;;;;3.67;2.38;;;13.90;99.90;;;;;;5033284;28;20117;-67
2023/07/23 00:57:02;;;;;;;5.97;2.53;;;13.90;99.90;;;;;;5033794;28;20113;-67
2023/07/23 00:59:30;;;;;;;5.38;2.50;;;13.80;99.90;;;;;;5033164;28;20095;-67
2023/07/23 01:01:57;;;;;;;4.57;2.50;;;13.80;99.90;;;;;;5033155;28;20540;-67
2023/07/23 01:04:23;;;;;;;4.85;2.72;;;13.80;99.90;;;;;;5033206;28;20014;-67
2023/07/23 01:06:49;;;;;;;3.85;2.33;;;13.90;99.90;;;;;;5031808;28;20095;-67
2023/07/23 01:09:17;;;;;;;3.80;2.40;;;14.10;99.90;;;;;;5033340;28;20072;-67
2023/07/23 01:11:43;;;;;;;5.78;2.92;;;14.20;99.90;;;;;;5033074;28;20545;-67
2023/07/23 01:14:09;;;;;;;3.60;2.35;;;14.30;99.90;;;;;;5033083;28;20034;-67
2023/07/23 01:16:36;;;;;;;3.40;2.17;;;14.50;99.90;;;;;;5033012;28;20117;-67
2023/07/23 01:19:03;;;;;;;3.83;2.20;;;14.60;99.90;;;;;;5032096;28;20402;-67
2023/07/23 01:21:28;;;;;;;3.30;2.13;;;14.70;99.90;;;;;;5033120;28;20033;-67
2023/07/23 01:23:55;;;;;;;3.63;2.10;;;14.80;99.90;;;;;;5032928;28;20485;-67
2023/07/23 01:26:21;;;;;;;5.82;2.10;;;14.80;99.90;;;;;;5033293;28;20033;-67
2023/07/23 01:28:47;;;;;;;4.72;2.35;;;14.90;99.90;;;;;;5032958;28;20474;-67
2023/07/23 01:31:12;;;;;;;3.15;2.00;;;14.90;99.90;;;;;;5032892;28;20105;-67
2023/07/23 01:33:40;;;;;;;3.13;2.05;;;14.90;99.90;;;;;;5032946;28;20111;-67
2023/07/23 01:36:06;;;;;;;5.03;2.50;;;15.00;99.90;;;;;;5031674;28;20393;-67
2023/07/23 01:38:31;;;;;;;4.60;2.53;;;15.00;99.90;;;;;;5031819;28;20029;-67
2023/07/23 01:40:58;;;;;;;4.00;2.45;;;15.00;99.90;;;;;;5032850;28;20080;-67
2023/07/23 01:43:24;;;;;;;4.93;2.63;;;14.90;99.90;;;;;;5032816;28;20029;-67
2023/07/23 01:45:50;;;;;;;5.80;2.28;;;14.90;99.90;;;;;;5035368;28;20025;-67
2023/07/23 01:48:17;;;;;;;3.70;2.08;;;14.90;99.90;;;;;;5036844;28;20512;-67
2023/07/23 01:50:43;;;;;;;4.30;2.10;;;14.90;99.90;;;;;;5036596;28;20504;-67
2023/07/23 01:53:08;;;;;;;3.95;2.17;;;14.90;99.90;;;;;;5035144;28;20033;-67
2023/07/23 01:55:35;;;;;;;4.57;2.28;;;14.80;99.90;;;;;;5035192;28;20117;-67
2023/07/23 01:58:00;;;;;;;3.65;1.92;;;14.70;99.90;;;;;;5036370;28;20040;-66
2023/07/23 02:00:26;;;;;;;4.57;2.25;;;14.70;99.90;;;;;;5036417;28;20029;-66
2023/07/23 02:02:52;;;;;;;4.55;2.10;;;14.70;99.90;;;;;;5036329;28;20032;-67
2023/07/23 02:05:19;;;;;;;4.80;1.88;;;14.70;99.90;;;;;;5035081;28;20100;-66
2023/07/23 02:07:45;;;;;;;3.20;1.80;;;14.70;99.90;;;;;;5036463;28;20017;-67
2023/07/23 02:10:11;;;;;;;4.07;2.00;;;14.70;99.90;;;;;;5036164;28;20393;-67
2023/07/23 02:12:37;;;;;;;4.10;1.95;;;14.60;99.90;;;;;;5036091;28;20033;-67
2023/07/23 02:15:03;;;;;;;3.05;1.77;;;14.60;99.90;;;;;;5036090;28;20603;-67
2023/07/23 02:17:29;;;;;;;3.58;2.25;;;14.60;99.90;;;;;;5036001;28;20485;-67
2023/07/23 02:19:55;;;;;;;3.35;1.77;;;14.60;99.90;;;;;;5035919;28;20030;-67
2023/07/23 02:22:20;;;;;;;4.82;2.22;;;14.60;99.90;;;;;;5035924;28;20030;-67
2023/07/23 02:24:46;;;;;;;3.78;2.30;;;14.50;99.90;;;;;;5035932;28;20017;-66
2023/07/23 02:27:15;;;;;;;3.58;1.92;;;14.50;99.90;;;;;;5035114;28;20036;-67
2023/07/23 02:29:41;;;;;;;6.18;2.20;;;14.50;99.90;;;;;;5035994;28;20456;-66
2023/07/23 02:32:09;;;;;;;3.33;2.08;;;14.50;99.90;;;;;;5035676;28;20029;-67
2023/07/23 02:34:35;;;;;;;4.35;2.40;;;14.50;99.90;;;;;;5035723;28;20525;-67
2023/07/23 02:37:00;;;;;;;2.85;1.95;;;14.50;99.90;;;;;;5035663;28;20061;-67
2023/07/23 02:39:26;;;;;;;4.55;2.05;;;14.50;99.90;;;;;;5036108;28;20470;-66
2023/07/23 02:41:52;;;;;;;5.28;2.25;;;14.50;99.90;;;;;;5035821;28;20025;-67
2023/07/23 02:44:17;;;;;;;4.38;2.20;;;14.50;99.90;;;;;;5035800;28;20474;-67
2023/07/23 02:46:43;;;;;;;3.50;2.22;;;14.50;99.90;;;;;;5035838;28;20029;-67
2023/07/23 02:49:08;;;;;;;3.88;2.30;;;14.50;99.90;;;;;;5035696;28;20104;-67
2023/07/23 02:51:34;;;;;;;4.03;2.10;;;14.40;99.90;;;;;;5035324;28;20075;-67
2023/07/23 02:54:00;;;;;;;3.60;2.20;;;14.40;99.90;;;;;;5035383;28;20057;-67
2023/07/23 02:56:26;;;;;;;3.45;2.10;;;14.30;99.90;;;;;;5034418;28;20052;-67
2023/07/23 02:58:54;;;;;;;3.83;2.28;;;14.30;99.90;;;;;;5034427;28;20104;-67
2023/07/23 03:01:20;;;;;;;3.85;2.10;;;14.30;99.90;;;;;;5035723;28;20625;-67
2023/07/23 03:03:47;;;;;;;3.58;1.92;;;14.20;99.90;;;;;;5033828;28;20112;-67
2023/07/23 03:06:13;;;;;;;4.10;2.17;;;14.20;99.90;;;;;;5035123;28;20481;-67
2023/07/23 03:08:39;;;;;;;4.43;2.40;;;14.20;99.90;;;;;;5035110;28;20029;-67
2023/07/23 03:11:06;;;;;;;3.63;2.47;;;14.10;99.90;;;;;;5035065;28;20036;-67
2023/07/23 03:13:31;;;;;;;3.97;2.28;;;14.10;99.90;;;;;;5034934;28;20041;-67
2023/07/23 03:15:57;;;;;;;5.22;2.15;;;14.00;99.90;;;;;;5034862;28;20037;-67
2023/07/23 03:18:23;;;;;;;3.97;2.40;;;14.00;99.90;;;;;;5034928;28;20061;-66
2023/07/23 03:20:49;;;;;;;7.90;2.35;;;14.00;99.90;;;;;;5035165;28;20025;-67
2023/07/23 03:23:15;;;;;;;3.88;2.22;;;14.00;99.90;;;;;;5034786;28;20440;-67
2023/07/23 03:25:40;;;;;;;4.03;2.15;;;13.90;99.90;;;;;;5034740;28;20474;-67
2023/07/23 03:28:06;;;;;;;3.75;2.42;;;13.90;99.90;;;;;;5035284;28;20040;-67
2023/07/23 03:30:32;;;;;;;4.78;2.13;;;13.90;99.90;;;;;;5034735;28;20473;-67
2023/07/23 03:32:57;;;;;;;6.18;1.88;;;13.80;99.90;;;;;;5033386;28;20489;-67
2023/07/23 03:35:23;;;;;;;4.25;1.90;;;13.80;99.90;;;;;;5033446;28;20034;-67
2023/07/23 03:37:49;;;;;;;4.25;2.08;;;13.70;99.90;;;;;;5034577;28;20104;-67
2023/07/23 03:40:15;;;;;;;3.55;2.00;;;13.70;99.90;;;;;;5034540;28;20030;-66
2023/07/23 03:42:41;;;;;;;4.35;2.00;;;13.70;99.90;;;;;;5033230;28;20473;-66
2023/07/23 03:45:07;;;;;;;3.72;1.95;;;13.60;99.90;;;;;;5042847;28;20112;-67
2023/07/23 03:47:32;;;;;;;4.28;2.20;;;13.60;99.90;;;;;;5054261;28;20504;-66
2023/07/23 03:49:59;;;;;;;3.47;2.25;;;13.50;99.90;;;;;;5052918;28;20037;-67
2023/07/23 03:52:25;;;;;;;4.25;2.28;;;13.50;99.90;;;;;;5054663;28;20112;-67
2023/07/23 03:54:50;;;;;;;5.93;1.98;;;13.50;99.90;;;;;;5054398;28;20060;-67
2023/07/23 03:57:16;;;;;;;5.15;2.35;;;13.50;99.90;;;;;;5054160;28;20389;-67
2023/07/23 03:59:46;;;;;;;5.38;2.20;;;13.40;99.90;;;;;;5054006;28;20032;-67
2023/07/23 04:02:13;;;;;;;3.20;2.17;;;13.30;99.90;;;;;;5054463;28;20024;-67
2023/07/23 04:04:39;;;;;;;3.78;2.20;;;13.40;99.90;;;;;;5053986;28;20291;-67
2023/07/23 04:07:06;;;;;;;3.00;2.00;;;13.30;99.90;;;;;;5053892;28;20025;-67
2023/07/23 04:09:32;;;;;;;3.45;2.20;;;13.30;99.90;;;;;;5054035;28;20025;-67
2023/07/23 04:11:58;;;;;;;3.05;2.20;;;13.20;99.90;;;;;;5053738;28;20037;-67
2023/07/23 04:14:24;;;;;;;4.72;1.90;;;13.30;99.90;;;;;;5053800;28;20392;-67
2023/07/23 04:16:50;;;;;;;3.42;2.05;;;13.30;99.90;;;;;;5053694;28;20108;-67
2023/07/23 04:19:17;;;;;;;5.47;2.20;;;13.30;99.90;;;;;;5054236;28;20104;-67
2023/07/23 04:21:43;;;;;;;4.35;1.90;;;13.30;99.90;;;;;;5053718;28;20025;-67
2023/07/23 04:24:08;;;;;;;5.78;2.33;;;13.30;99.90;;;;;;5053617;28;20044;-67
2023/07/23 04:26:34;;;;;;;3.70;2.20;;;13.30;99.90;;;;;;5052358;28;20025;-67
2023/07/23 04:29:00;;;;;;;3.42;2.15;;;13.30;99.90;;;;;;5053984;28;20210;-67
2023/07/23 04:31:26;;;;;;;3.58;2.13;;;13.30;99.90;;;;;;5053550;28;20032;-67
2023/07/23 04:33:52;;;;;;;4.07;2.40;;;13.20;99.90;;;;;;5053466;28;20116;-67
2023/07/23 04:36:18;;;;;;;3.30;2.25;;;13.30;99.90;;;;;;5053463;28;20021;-67
2023/07/23 04:38:44;;;;;;;5.85;2.67;;;13.20;99.90;;;;;;5052123;28;20021;-67
2023/07/23 04:41:10;;;;;;;4.15;2.40;;;13.30;99.90;;;;;;5053341;28;20025;-66
2023/07/23 04:43:37;;;;;;;3.40;2.10;;;13.30;99.90;;;;;;5053244;28;20025;-66
2023/07/23 04:46:06;;;;;;;4.82;2.13;;;13.30;99.90;;;;;;5053258;28;20025;-66
2023/07/23 04:48:36;;;;;;;4.28;2.20;;;13.30;99.90;;;;;;5053328;28;20029;-67
2023/07/23 04:51:04;;;;;;;3.80;2.10;;;13.30;99.90;;;;;;5053256;28;20043;-66
2023/07/23 04:53:30;;;;;;;3.25;2.35;;;13.30;99.90;;;;;;5053480;28;20381;-66
2023/07/23 04:55:57;;;;;;;4.60;2.67;;;13.30;99.90;;;;;;5053173;28;20025;-66
2023/07/23 04:58:24;;;;;;;4.28;2.38;;;13.40;99.90;;;;;;5053174;28;20050;-67
2023/07/23 05:00:50;;;;;;;5.60;2.20;;;13.40;99.90;;;;;;5053186;28;20039;-67
2023/07/23 05:03:16;;;;;;;3.28;2.30;;;13.40;99.90;;;;;;5053181;28;20112;-67
2023/07/23 05:05:50;;;;;;;4.20;2.40;;;13.40;99.90;;;;;;5053146;28;20052;-67
2023/07/23 05:08:19;;;;;;;4.03;2.10;;;13.50;99.90;;;;;;5053458;28;20527;-68
2023/07/23 05:10:46;;;;;;;4.97;2.42;;;13.50;99.90;;;;;;5052580;28;20107;-67
2023/07/23 05:13:12;;;;;;;4.38;2.40;;;13.50;99.90;;;;;;5052291;28;20029;-67
2023/07/23 05:15:38;;;;;;;3.92;2.38;;;13.60;99.90;;;;;;5052370;28;20033;-67
2023/07/23 05:18:04;;;;;;;4.95;2.58;;;13.70;99.90;;;;;;5052253;28;20044;-67
2023/07/23 05:20:29;;;;;;;4.25;2.58;;;13.70;99.90;;;;;;5054305;28;20044;-67
2023/07/23 05:22:55;;;;;;;4.65;2.67;;;13.80;99.90;;;;;;5056265;28;20036;-67
2023/07/23 05:25:21;;;;;;;4.10;2.30;;;13.80;99.90;;;;;;5056598;28;20028;-67
2023/07/23 05:27:48;;;;;;;7.60;2.83;;;13.90;99.90;;;;;;5056963;28;20104;-67
2023/07/23 05:30:14;;;;;;;4.60;2.90;;;13.90;99.90;;;;;;5055767;28;20430;-67
2023/07/23 05:32:39;;;;;;;4.93;2.70;;;13.90;99.90;;;;;;5055438;28;20033;-67
2023/07/23 05:35:05;;;;;;;4.35;2.58;;;14.00;99.90;;;;;;5057081;28;20035;-67
2023/07/23 05:37:31;;;;;;;4.40;2.65;;;14.00;99.90;;;;;;5056923;28;20060;-67
2023/07/23 05:39:57;;;;;;;4.35;2.65;;;14.00;99.90;;;;;;5053031;28;20112;-66
2023/07/23 05:42:22;;;;;;;4.78;2.70;;;14.10;99.90;;;;;;5035676;28;20029;-66
2023/07/23 05:44:49;;;;;;;4.30;2.67;;;14.10;99.90;;;;;;5036137;28;20014;-66
2023/07/23 05:47:15;;;;;;;4.13;2.95;;;14.10;99.90;;;;;;5036484;28;20059;-67
2023/07/23 05:49:40;;;;;;;4.47;2.72;;;14.20;99.90;;;;;;5035629;28;20549;-67
2023/07/23 05:52:06;;;;;;;4.43;3.10;;;14.20;99.90;;;;;;5035930;28;20116;-67
2023/07/23 05:54:32;;;;;;;4.40;2.90;;;14.30;99.90;;;;;;5035872;28;20030;-67
2023/07/23 05:56:59;;;;;;;4.70;3.55;;;14.40;99.90;;;;;;5036002;28;20091;-67
2023/07/23 05:59:25;;;;;;;6.20;3.55;;;14.40;99.90;;;;;;5035373;28;20029;-67
2023/07/23 06:01:50;;;;;;;5.30;2.88;;;14.50;99.90;;;;;;5035799;28;20044;-67
2023/07/23 06:04:16;;;;;;;7.15;3.10;;;14.60;99.90;;;;;;5035387;28;20110;-67
2023/07/23 06:06:42;;;;;;;5.03;3.05;;;14.60;99.90;;;;;;5036168;28;20033;-67
2023/07/23 06:09:08;;;;;;;4.97;3.45;;;14.70;99.90;;;;;;5034212;28;20028;-66
2023/07/23 06:11:34;;;;;;;4.95;3.25;;;14.80;99.90;;;;;;5034686;28;20398;-67
2023/07/23 06:14:00;;;;;;;6.40;3.45;;;14.80;99.90;;;;;;5034777;28;20022;-67
2023/07/23 06:16:25;;;;;;;5.05;3.30;;;14.90;99.90;;;;;;5034840;28;20501;-68
2023/07/23 06:18:51;;;;;;;5.10;3.33;;;15.00;99.90;;;;;;5034768;28;20075;-67
2023/07/23 06:21:17;;;;;;;5.20;3.25;;;15.00;99.90;;;;;;5035750;28;20029;-67
2023/07/23 06:23:43;;;;;;;6.10;3.40;;;15.10;99.90;;;;;;5035722;28;20107;-67
2023/07/23 06:26:11;;;;;;;5.88;3.78;;;15.10;99.90;;;;;;5035033;28;20087;-67
2023/07/23 06:28:37;;;;;;;4.65;3.05;;;15.20;99.90;;;;;;5035503;28;20029;-67
2023/07/23 06:31:02;;;;;;;4.68;3.28;;;15.30;99.90;;;;;;5033940;28;20043;-67
2023/07/23 06:33:28;;;;;;;7.47;4.45;;;15.40;99.90;;;;;;5034901;28;20026;-67
2023/07/23 06:35:54;;;;;;;6.30;4.28;;;15.40;99.90;;;;;;5034547;28;20055;-67
2023/07/23 06:38:19;;;;;;;7.03;5.18;;;15.50;99.90;;;;;;5033671;28;20040;-67
2023/07/23 06:40:46;;;;;;;7.68;5.10;;;15.60;99.90;;;;;;5028557;28;20105;-67
2023/07/23 06:43:13;;;;;;;6.97;4.75;;;15.70;99.90;;;;;;5034597;28;20437;-67
2023/07/23 06:45:39;;;;;;;7.55;5.45;;;15.70;99.90;;;;;;5035629;28;20446;-67
2023/07/23 06:48:04;;;;;;;7.28;4.90;;;15.80;99.90;;;;;;5035436;28;20045;-67
2023/07/23 06:50:31;;;;;;;7.05;4.20;;;15.90;99.90;;;;;;5035093;28;20206;-67
2023/07/23 06:52:57;;;;;;;7.20;4.03;;;15.90;99.90;;;;;;5034214;28;20030;-67
2023/07/23 06:55:23;;;;;;;6.15;4.10;;;16.00;99.90;;;;;;5033024;28;20029;-67
2023/07/23 06:57:49;;;;;;;4.78;3.58;;;16.00;99.90;;;;;;5035391;28;20033;-67
2023/07/23 07:00:14;;;;;;;6.10;3.70;;;16.10;99.90;;;;;;5035471;28;20385;-67
2023/07/23 07:02:41;;;;;;;8.50;4.03;;;16.20;99.90;;;;;;5035226;28;20017;-67
2023/07/23 07:05:06;;;;;;;6.38;3.90;;;16.30;99.90;;;;;;5035226;28;20032;-68
2023/07/23 07:07:32;;;;;;;5.75;4.03;;;16.40;99.90;;;;;;5035233;28;20469;-67
2023/07/23 07:09:59;;;;;;;5.25;3.47;;;16.50;99.90;;;;;;5035428;28;20037;-67
2023/07/23 07:12:25;;;;;;;4.97;3.40;;;16.50;99.90;;;;;;5035228;28;20549;-67
2023/07/23 07:14:50;;;;;;;6.55;4.10;;;16.60;99.90;;;;;;5035596;28;20072;-67
2023/07/23 07:17:16;;;;;;;5.80;3.75;;;16.70;99.90;;;;;;5034898;28;20064;-67
2023/07/23 07:19:42;;;;;;;5.97;3.88;;;16.80;99.90;;;;;;5035168;28;20026;-67
2023/07/23 07:22:07;;;;;;;6.65;4.18;;;16.90;99.90;;;;;;5034729;28;20084;-67
2023/07/23 07:24:34;;;;;;;8.45;4.28;;;17.00;99.90;;;;;;5033669;28;20052;-67
2023/07/23 07:26:59;;;;;;;6.00;3.92;;;17.10;99.90;;;;;;5034683;28;20022;-67
2023/07/23 07:29:25;;;;;;;5.35;3.50;;;17.20;99.90;;;;;;5039531;28;20104;-67
2023/07/23 07:31:51;;;;;;;5.75;3.90;;;17.30;99.90;;;;;;5054558;28;20032;-67
2023/07/23 07:34:17;;;;;;;4.95;3.00;;;17.40;99.90;;;;;;5054515;28;20044;-67
2023/07/23 07:36:44;;;;;;;5.00;3.30;;;17.50;99.90;;;;;;5054451;28;20028;-67
2023/07/23 07:39:10;;;;;;;5.07;3.55;;;17.50;99.90;;;;;;5054691;28;20530;-67
2023/07/23 07:41:36;;;;;;;6.68;3.05;;;17.60;99.90;;;;;;5054916;28;20108;-67
2023/07/23 07:44:01;;;;;;;4.78;3.38;;;17.80;99.90;;;;;;5054003;28;20100;-68
2023/07/23 07:46:27;;;;;;;5.03;3.28;;;17.90;99.90;;;;;;5054627;28;20354;-67
2023/07/23 07:48:53;;;;;;;5.50;3.38;;;18.10;99.90;;;;;;5054323;28;20029;-67
2023/07/23 07:51:18;;;;;;;4.35;2.85;;;18.20;99.90;;;;;;5054253;28;20545;-67
2023/07/23 07:53:44;;;;;;;4.57;2.92;;;18.30;99.90;;;;;;5054100;28;20033;-67
2023/07/23 07:56:13;;;;;;;5.78;3.53;;;18.50;99.90;;;;;;5054174;28;20025;-67
2023/07/23 07:58:39;;;;;;;4.75;3.13;;;18.60;99.90;;;;;;5054443;28;20041;-67
2023/07/23 08:01:05;;;;;;;4.80;3.10;;;18.70;99.90;;;;;;5054237;28;20469;-67
2023/07/23 08:03:32;;;;;;;4.28;2.75;;;18.80;99.90;;;;;;5052818;28;20032;-67
2023/07/23 08:05:59;;;;;;;6.25;3.60;;;19.00;99.90;;;;;;5053963;28;20033;-70
2023/07/23 08:08:27;;;;;;;4.40;2.83;;;19.10;99.90;;;;;;5053975;28;20036;-69
2023/07/23 08:10:57;;;;;;;4.93;3.10;;;19.20;99.90;;;;;;5052768;28;20052;-69
2023/07/23 08:13:23;;;;;;;3.75;2.70;;;19.30;99.90;;;;;;5054504;28;20025;-69
2023/07/23 08:15:48;;;;;;;5.30;3.20;;;19.50;99.90;;;;;;5054285;28;20027;-70
2023/07/23 08:18:15;;;;;;;4.65;2.95;;;19.50;99.90;;;;;;5036305;28;20500;-69
2023/07/23 08:20:41;;;;;;;4.78;2.60;;;19.70;99.90;;;;;;5053919;28;20104;-69
2023/07/23 08:23:08;;;;;;;4.25;2.80;;;19.80;99.90;;;;;;5053905;28;20091;-69
2023/07/23 08:25:35;;;;;;;5.55;3.05;;;19.90;99.90;;;;;;5053658;28;20025;-68
2023/07/23 08:28:02;;;;;;;3.85;2.70;;;20.10;99.90;;;;;;5053531;28;20473;-68
2023/07/23 08:30:28;;;;;;;4.00;2.80;;;20.20;99.90;;;;;;5052225;28;20090;-68
2023/07/23 08:32:56;;;;;;;5.40;2.83;;;20.30;99.90;;;;;;5053555;28;20117;-70
2023/07/23 08:35:23;;;;;;;6.38;3.00;;;20.40;99.90;;;;;;5052118;28;20116;-70
2023/07/23 08:37:49;;;;;;;5.20;3.42;;;20.50;99.90;;;;;;5053394;28;20024;-70
2023/07/23 08:40:15;;;;;;;5.28;3.08;;;20.60;99.90;;;;;;5053397;28;20020;-69
2023/07/23 08:42:53;;;;;;;4.30;2.67;;;20.70;99.90;;;;;;5053270;28;20086;-67
2023/07/23 08:45:54;;;;;;;4.43;2.65;;;20.90;99.90;;;;;;5053478;28;20017;-67
2023/07/23 08:48:20;;;;;;;3.75;2.45;;;21.00;99.90;;;;;;5053451;28;20087;-67
2023/07/23 08:50:49;;;;;;;4.22;2.58;;;21.20;99.90;;;;;;5053915;28;20516;-67
2023/07/23 08:53:16;;;;;;;4.32;2.90;;;21.20;99.90;;;;;;5053294;28;20025;-67
2023/07/23 08:55:44;;;;;;;3.85;2.50;;;21.30;99.90;;;;;;5051142;28;20022;-67
2023/07/23 08:58:15;;;;;;;4.85;3.10;;;21.40;99.90;;;;;;5053199;28;20025;-66
2023/07/23 09:00:43;;;;;;;3.78;2.50;;;21.60;99.90;;;;;;5053194;28;20039;-68
2023/07/23 09:03:11;;;;;;;4.32;2.70;;;21.70;99.90;;;;;;5051963;28;20039;-67
2023/07/23 09:05:39;;;;;;;3.53;2.20;;;21.80;99.90;;;;;;5052134;28;20028;-66
2023/07/23 09:08:05;;;;;;;3.72;2.83;;;21.90;99.90;;;;;;5052754;28;20040;-67
2023/07/23 09:10:30;;;;;;;4.35;2.35;;;22.00;99.90;;;;;;5051865;28;20475;-68
2023/07/23 09:12:56;;;;;;;4.53;2.80;;;22.00;99.90;;;;;;5053122;28;20116;-68
2023/07/23 09:15:22;;;;;;;4.60;2.72;;;22.10;99.90;;;;;;5053133;28;20057;-68
2023/07/23 09:17:51;;;;;;;4.13;2.58;;;22.30;99.90;;;;;;5052992;28;20564;-68
2023/07/23 09:20:20;;;;;;;3.55;2.40;;;22.40;99.90;;;;;;5053000;28;20183;-68
2023/07/23 09:22:46;;;;;;;3.50;2.20;;;22.50;99.90;;;;;;5053031;28;20029;-68
2023/07/23 09:25:13;;;;;;;5.03;2.70;;;22.50;99.90;;;;;;5053004;28;20143;-68
2023/07/23 09:27:41;;;;;;;4.07;2.75;;;22.60;99.90;;;;;;5052962;28;20021;-68
2023/07/23 09:30:07;;;;;;;4.15;2.60;;;22.60;99.90;;;;;;5052966;28;20051;-68
2023/07/23 09:32:33;;;;;;;4.95;2.60;;;22.70;99.90;;;;;;5053035;28;20033;-68
2023/07/23 09:34:59;;;;;;;4.78;2.40;;;22.80;99.90;;;;;;5051669;28;20091;-68
2023/07/23 09:37:29;;;;;;;5.43;2.42;;;22.90;99.90;;;;;;5051886;28;20025;-68
2023/07/23 09:39:58;;;;;;;5.32;2.53;;;23.00;99.90;;;;;;5053143;28;20408;-69
2023/07/23 09:42:26;;;;;;;4.70;2.90;;;23.10;99.90;;;;;;5052736;28;20054;-68
2023/07/23 09:44:52;;;;;;;7.07;2.40;;;23.20;99.90;;;;;;5051913;28;20029;-68
2023/07/23 09:47:25;;;;;;;3.85;2.58;;;23.40;99.90;;;;;;5052763;28;20024;-68
2023/07/23 09:49:52;;;;;;;4.28;2.40;;;23.50;99.90;;;;;;5052914;28;20036;-68
2023/07/23 09:52:32;;;;;;;4.00;2.40;;;23.70;99.90;;;;;;5051882;28;20009;-67
2023/07/23 09:54:59;;;;;;;4.57;2.30;;;23.80;98.50;;;;;;5053115;28;20166;-67
2023/07/23 09:57:26;;;;;;;4.45;2.38;;;24.00;96.90;;;;;;5051362;28;20401;-67
2023/07/23 09:59:53;;;;;;;4.13;2.90;;;24.20;98.00;;;;;;5052804;28;20033;-67
2023/07/23 10:02:23;;;;;;;4.03;2.33;;;24.40;97.50;;;;;;5052797;28;20033;-68
2023/07/23 10:04:48;;;;;;;5.13;2.33;;;24.50;98.00;;;;;;5052570;28;20025;-69
2023/07/23 10:07:15;;;;;;;3.80;2.15;;;24.60;94.80;;;;;;5055784;28;20385;-69
2023/07/23 10:09:40;;;;;;;4.90;2.63;;;24.70;92.40;;;;;;5056208;28;20112;-69
2023/07/23 10:12:06;;;;;;;3.10;2.33;;;24.80;93.00;;;;;;5056254;28;20060;-69
2023/07/23 10:14:32;;;;;;;4.43;2.47;;;24.90;92.40;;;;;;5056111;28;20025;-69
2023/07/23 10:16:59;;;;;;;4.13;2.40;;;25.00;91.50;;;;;;5054742;28;20060;-67
2023/07/23 10:19:25;;;;;;;4.20;2.45;;;25.10;89.90;;;;;;5056387;28;20116;-68
2023/07/23 10:21:51;;;;;;;4.18;2.67;;;25.20;87.30;;;;;;5055872;28;20024;-69
2023/07/23 10:24:17;;;;;;;4.50;2.03;;;25.30;85.50;;;;;;5034766;28;20032;-69
2023/07/23 10:26:53;;;;;;;4.63;2.30;;;25.40;89.80;;;;;;5020808;28;20101;-68
2023/07/23 10:29:21;;;;;;;4.15;2.30;;;25.50;86.60;;;;;;5024869;28;20021;-68
2023/07/23 10:31:47;;;;;;;3.08;2.22;;;25.60;87.00;;;;;;5023677;28;20018;-68
2023/07/23 10:34:40;;;;;;;3.60;2.38;;;25.70;83.30;;;;;;5033657;28;20485;-68
2023/07/23 10:37:19;;;;;;;7.15;2.33;;;25.80;85.50;;;;;;5015673;28;20040;-68
2023/07/23 10:39:53;;;;;;;4.50;2.58;;;25.90;84.40;;;;;;5018865;28;20026;-68
2023/07/23 10:42:28;;;;;;;3.97;2.63;;;26.00;82.10;;;;;;5020453;28;20053;-68
2023/07/23 10:45:26;;;;;;;4.65;2.85;;;26.10;82.70;;;;;;5035544;28;20404;-68
2023/07/23 10:47:53;;;;;;;4.40;2.60;;;26.20;85.60;;;;;;5009982;28;20029;-68
2023/07/23 10:50:20;;;;;;;4.35;2.50;;;26.30;84.20;;;;;;5015535;28;20684;-68
2023/07/23 10:52:48;;;;;;;5.65;2.78;;;26.40;84.60;;;;;;5015535;28;20026;-68
2023/07/23 10:55:34;;;;;;;5.43;2.78;;;26.50;81.30;;;;;;5016090;28;20053;-68
2023/07/23 10:58:11;;;;;;;4.07;2.85;;;26.60;80.90;;;;;;5014501;28;20048;-68
2023/07/23 11:00:44;;;;;;;4.53;2.80;;;26.70;79.50;;;;;;5015795;28;20466;-68
2023/07/23 11:03:12;;;;;;;5.30;3.00;;;26.80;78.80;;;;;;5015615;28;20025;-68
2023/07/23 11:05:42;;;;;;;3.65;2.90;;;26.80;76.90;;;;;;5015457;28;20026;-68
2023/07/23 11:08:23;;;;;;;4.43;2.88;;;26.90;77.90;;;;;;5015399;28;20056;-69
2023/07/23 11:10:56;;;;;;;4.47;3.15;;;27.00;80.00;;;;;;5015369;28;20108;-68
2023/07/23 11:13:24;;;;;;;3.80;2.63;;;27.10;77.00;;;;;;5015300;28;20402;-68
2023/07/23 11:15:50;;;;;;;4.93;3.03;;;27.20;75.50;;;;;;5015606;28;20021;-69
2023/07/23 11:18:17;;;;;;;4.80;3.17;;;27.30;73.70;;;;;;5014725;28;20038;-68
2023/07/23 11:20:46;;;;;;;5.57;3.30;;;27.40;74.70;;;;;;5015123;28;20030;-68
2023/07/23 11:23:13;;;;;;;5.78;3.65;;;27.40;71.70;;;;;;5015161;28;20420;-68
2023/07/23 11:25:40;;;;;;;5.60;3.60;;;27.50;72.80;;;;;;5014107;28;20495;-68
2023/07/23 11:28:08;;;;;;;4.97;3.50;;;27.60;69.60;;;;;;5014956;28;20097;-68
2023/07/23 11:30:34;;;;;;;7.75;4.32;;;27.60;68.60;;;;;;5015246;28;20029;-69
2023/07/23 11:33:02;;;;;;;6.32;4.10;;;27.70;67.20;;;;;;5015998;28;20367;-68
2023/07/23 11:35:28;;;;;;;6.22;4.00;;;27.80;66.90;;;;;;5015648;28;20141;-68
2023/07/23 11:37:54;;;;;;;6.30;4.10;;;27.90;71.40;;;;;;5015283;28;20565;-69
2023/07/23 11:40:23;;;;;;;6.47;3.90;;;28.00;69.10;;;;;;5015006;28;20034;-68
2023/07/23 11:42:51;;;;;;;5.65;3.90;;;28.00;66.40;;;;;;5015083;28;20076;-68
2023/07/23 11:45:16;;;;;;;8.65;3.80;;;28.10;66.70;;;;;;5014756;28;20045;-69
2023/07/23 11:47:50;;;;;;;5.85;3.60;;;28.10;69.20;;;;;;5014590;28;20069;-69
2023/07/23 11:50:20;;;;;;;4.97;3.30;;;28.10;67.60;;;;;;5014762;28;20505;-69
2023/07/23 11:52:48;;;;;;;4.88;3.15;;;28.20;68.70;;;;;;5014881;28;20084;-69
2023/07/23 11:55:26;;;;;;;5.80;3.63;;;28.20;68.40;;;;;;5014614;28;20030;-69
2023/07/23 11:57:57;;;;;;;6.57;3.55;;;28.30;67.80;;;;;;5014567;28;20092;-69
2023/07/23 12:00:28;;;;;;;5.72;3.50;;;28.40;66.10;;;;;;5014596;28;20045;-69
2023/07/23 12:02:54;;;;;;;7.25;3.85;;;28.40;65.80;;;;;;5014248;28;20018;-69
2023/07/23 12:05:20;;;;;;;5.30;3.45;;;28.50;68.30;;;;;;5013094;28;20036;-69
2023/07/23 12:07:46;;;;;;;4.50;3.42;;;28.60;68.50;;;;;;5014374;28;20445;-69
2023/07/23 12:10:14;;;;;;;5.63;3.80;;;28.60;67.60;;;;;;5014337;28;20114;-69
2023/07/23 12:12:43;;;;;;;5.93;3.47;;;28.70;69.40;;;;;;5014132;28;20096;-69
2023/07/23 12:15:11;;;;;;;6.60;3.70;;;28.70;69.80;;;;;;5014577;28;20038;-69
2023/07/23 12:17:37;;;;;;;6.18;3.38;;;28.90;69.20;;;;;;5014094;28;20490;-68
2023/07/23 12:20:03;;;;;;;5.45;3.53;;;29.00;66.50;;;;;;5013136;28;20034;-69
2023/07/23 12:22:32;;;;;;;5.20;3.75;;;29.00;68.10;;;;;;5014296;28;20030;-69
2023/07/23 12:24:58;;;;;;;6.00;3.50;;;29.10;68.90;;;;;;5014584;28;20046;-69
2023/07/23 12:27:23;;;;;;;6.88;3.47;;;29.10;67.30;;;;;;5014580;28;20022;-69
2023/07/23 12:29:50;;;;;;;5.68;4.00;;;29.20;66.10;;;;;;5013972;28;20034;-69
2023/07/23 12:32:19;;;;;;;6.72;3.80;;;29.30;68.30;;;;;;5013873;28;20029;-69
2023/07/23 12:34:51;;;;;;;6.20;4.00;;;29.40;68.40;;;;;;5014201;28;20040;-69
2023/07/23 12:37:17;;;;;;;6.07;3.97;;;29.40;65.70;;;;;;5014232;28;20048;-69
2023/07/23 12:39:44;;;;;;;4.47;3.38;;;29.50;62.10;;;;;;5013790;28;20473;-69
2023/07/23 12:42:09;;;;;;;5.20;3.83;;;29.40;65.00;;;;;;5013871;28;20064;-69
2023/07/23 12:44:35;;;;;;;4.65;3.55;;;29.40;62.70;;;;;;5013823;28;20069;-69
2023/07/23 12:47:01;;;;;;;5.35;3.83;;;29.40;65.20;;;;;;5024952;28;20033;-68